CCA7924 ZBAD-ZSWX
Flight info
| Callsign | CCA7924 |
|---|---|
| Flight time | 1h 28m |
| Altitude | 37100 |
| Route | ELKUR W40 YQG W142 DALIM A593 PIMOL |
| Aircraft | A321/M-SDE3FGHIRWY/LB1 |
Departure
| Time | 2026-05-04 10:19 |
|---|---|
| Airport | Beijing Daxing International Airport (ZBAD) |
Arrival
| Time | 2026-05-04 11:47 |
|---|---|
| Airport | Sunan Shuofang International Airport (ZSWX) |
| Time | Latitude | Longitude | Altitude | Speed | Heading |
|---|---|---|---|---|---|
| 2026-05-04 09:17 | 39.51078 | 116.40510 | 89 ft | 0 kts | 9° |
| 2026-05-04 09:18 | 39.51080 | 116.40510 | 89 ft | 0 kts | 9° |
| 2026-05-04 10:00 | 39.51018 | 116.40510 | 86 ft | 3 kts | 308° |
| 2026-05-04 10:00 | 39.51007 | 116.40532 | 89 ft | 3 kts | 303° |
| 2026-05-04 10:02 | 39.51006 | 116.40534 | 89 ft | 0 kts | 303° |
| 2026-05-04 10:04 | 39.51007 | 116.40532 | 88 ft | 1 kts | 301° |
| 2026-05-04 10:04 | 39.51008 | 116.40516 | 89 ft | 3 kts | 273° |
| 2026-05-04 10:05 | 39.51007 | 116.40483 | 85 ft | 5 kts | 266° |
| 2026-05-04 10:05 | 39.51008 | 116.40431 | 88 ft | 7 kts | 275° |
| 2026-05-04 10:05 | 39.51013 | 116.40362 | 85 ft | 9 kts | 274° |
| 2026-05-04 10:05 | 39.51007 | 116.40276 | 89 ft | 10 kts | 263° |
| 2026-05-04 10:06 | 39.50997 | 116.40174 | 86 ft | 12 kts | 263° |
| 2026-05-04 10:06 | 39.50986 | 116.40060 | 87 ft | 13 kts | 263° |
| 2026-05-04 10:06 | 39.51012 | 116.39963 | 90 ft | 12 kts | 348° |
| 2026-05-04 10:08 | 39.51348 | 116.39832 | 91 ft | 0 kts | 263° |
| 2026-05-04 10:16 | 39.51342 | 116.39770 | 96 ft | 6 kts | 263° |
| 2026-05-04 10:16 | 39.51328 | 116.39707 | 98 ft | 9 kts | 221° |
| 2026-05-04 10:16 | 39.51268 | 116.39698 | 98 ft | 8 kts | 170° |
| 2026-05-04 10:16 | 39.51203 | 116.39708 | 98 ft | 18 kts | 173° |
| 2026-05-04 10:17 | 39.50837 | 116.39765 | 97 ft | 92 kts | 173° |
| 2026-05-04 10:17 | 39.49973 | 116.39904 | 100 ft | 155 kts | 173° |
| 2026-05-04 10:19 | 39.40486 | 116.41321 | 3933 ft | 250 kts | 176° |
| 2026-05-04 10:19 | 39.38733 | 116.41599 | 4698 ft | 258 kts | 176° |
| 2026-05-04 10:19 | 39.36941 | 116.42041 | 5445 ft | 270 kts | 162° |
| 2026-05-04 10:19 | 39.35397 | 116.43481 | 6216 ft | 284 kts | 131° |
| 2026-05-04 10:20 | 39.34587 | 116.45842 | 6915 ft | 297 kts | 98° |
| 2026-05-04 10:20 | 39.34668 | 116.48523 | 7665 ft | 302 kts | 82° |
| 2026-05-04 10:20 | 39.34925 | 116.51226 | 8523 ft | 304 kts | 81° |
| 2026-05-04 10:20 | 39.35209 | 116.53954 | 9316 ft | 309 kts | 79° |
| 2026-05-04 10:21 | 39.35451 | 116.56730 | 10080 ft | 315 kts | 86° |
| 2026-05-04 10:21 | 39.35366 | 116.59639 | 10482 ft | 336 kts | 91° |
| 2026-05-04 10:21 | 39.35203 | 116.62752 | 10741 ft | 357 kts | 92° |
| 2026-05-04 10:21 | 39.35011 | 116.65988 | 11349 ft | 364 kts | 92° |
| 2026-05-04 10:22 | 39.34590 | 116.72583 | 12844 ft | 371 kts | 92° |
| 2026-05-04 10:22 | 39.34366 | 116.75919 | 13621 ft | 375 kts | 94° |
| 2026-05-04 10:22 | 39.33735 | 116.79207 | 14292 ft | 381 kts | 110° |
| 2026-05-04 10:23 | 39.32458 | 116.82223 | 14981 ft | 386 kts | 126° |
| 2026-05-04 10:23 | 39.30601 | 116.84735 | 15683 ft | 389 kts | 141° |
| 2026-05-04 10:25 | 39.12833 | 116.94346 | 20168 ft | 409 kts | 159° |
| 2026-05-04 10:25 | 39.10176 | 116.95684 | 20778 ft | 412 kts | 158° |
| 2026-05-04 10:25 | 39.07502 | 116.97034 | 21386 ft | 415 kts | 158° |
| 2026-05-04 10:25 | 39.04803 | 116.98396 | 21952 ft | 419 kts | 158° |
| 2026-05-04 10:26 | 39.02077 | 116.99765 | 22516 ft | 422 kts | 158° |
| 2026-05-04 10:26 | 38.99334 | 117.01142 | 23093 ft | 425 kts | 158° |
| 2026-05-04 10:26 | 38.96572 | 117.02526 | 23601 ft | 428 kts | 158° |
| 2026-05-04 10:26 | 38.93786 | 117.03919 | 24019 ft | 432 kts | 158° |
| 2026-05-04 10:27 | 38.90968 | 117.05300 | 24452 ft | 435 kts | 161° |
| 2026-05-04 10:27 | 38.87996 | 117.06045 | 24872 ft | 438 kts | 178° |
| 2026-05-04 10:27 | 38.84963 | 117.05755 | 25286 ft | 439 kts | 194° |
| 2026-05-04 10:27 | 38.82105 | 117.04424 | 25710 ft | 438 kts | 210° |
| 2026-05-04 10:28 | 38.79633 | 117.02164 | 26122 ft | 437 kts | 226° |
| 2026-05-04 10:28 | 38.77727 | 116.99164 | 26521 ft | 434 kts | 242° |
| 2026-05-04 10:28 | 38.76278 | 116.95769 | 26938 ft | 436 kts | 245° |
| 2026-05-04 10:28 | 38.74864 | 116.92381 | 27355 ft | 438 kts | 245° |
| 2026-05-04 10:29 | 38.73421 | 116.88934 | 27769 ft | 441 kts | 245° |
| 2026-05-04 10:29 | 38.71965 | 116.85467 | 28176 ft | 443 kts | 245° |
| 2026-05-04 10:29 | 38.70499 | 116.81982 | 28584 ft | 446 kts | 245° |
| 2026-05-04 10:29 | 38.69021 | 116.78480 | 28991 ft | 448 kts | 245° |
| 2026-05-04 10:30 | 38.67471 | 116.75000 | 29360 ft | 453 kts | 239° |
| 2026-05-04 10:30 | 38.65482 | 116.71842 | 29736 ft | 460 kts | 228° |
| 2026-05-04 10:30 | 38.63015 | 116.69189 | 30083 ft | 468 kts | 217° |
| 2026-05-04 10:30 | 38.60153 | 116.67160 | 30401 ft | 474 kts | 205° |
| 2026-05-04 10:31 | 38.56999 | 116.65855 | 30713 ft | 480 kts | 194° |
| 2026-05-04 10:31 | 38.53669 | 116.65299 | 31054 ft | 484 kts | 186° |
| 2026-05-04 10:32 | 38.33642 | 116.63013 | 33671 ft | 480 kts | 187° |
| 2026-05-04 10:33 | 38.30343 | 116.62902 | 34047 ft | 482 kts | 179° |
| 2026-05-04 10:33 | 38.27011 | 116.63409 | 34390 ft | 484 kts | 170° |
| 2026-05-04 10:33 | 38.23749 | 116.64496 | 34725 ft | 485 kts | 165° |
| 2026-05-04 10:33 | 38.20515 | 116.65712 | 35061 ft | 485 kts | 165° |
| 2026-05-04 10:34 | 38.17280 | 116.66916 | 35397 ft | 484 kts | 165° |
| 2026-05-04 10:34 | 38.14043 | 116.68112 | 35731 ft | 484 kts | 166° |
| 2026-05-04 10:34 | 38.10806 | 116.69303 | 36065 ft | 484 kts | 166° |
| 2026-05-04 10:34 | 38.07575 | 116.70502 | 36394 ft | 484 kts | 166° |
| 2026-05-04 10:35 | 38.04347 | 116.71723 | 36708 ft | 484 kts | 165° |
| 2026-05-04 10:35 | 38.01123 | 116.72958 | 36953 ft | 485 kts | 165° |
| 2026-05-04 10:35 | 37.94691 | 116.75438 | 37011 ft | 482 kts | 165° |
| 2026-05-04 10:36 | 37.88278 | 116.77890 | 37012 ft | 481 kts | 166° |
| 2026-05-04 10:36 | 37.81865 | 116.80316 | 37012 ft | 481 kts | 166° |
| 2026-05-04 10:37 | 37.75451 | 116.82739 | 37012 ft | 481 kts | 166° |
| 2026-05-04 10:37 | 37.69080 | 116.85146 | 37002 ft | 481 kts | 166° |
| 2026-05-04 10:39 | 37.46620 | 116.93596 | 37018 ft | 481 kts | 166° |
| 2026-05-04 10:40 | 37.40211 | 116.95997 | 37035 ft | 480 kts | 166° |
| 2026-05-04 10:40 | 37.34887 | 116.97986 | 37039 ft | 480 kts | 166° |
| 2026-05-04 10:41 | 37.28494 | 117.00395 | 37045 ft | 480 kts | 165° |
| 2026-05-04 10:41 | 37.22197 | 117.03214 | 37030 ft | 481 kts | 161° |
| 2026-05-04 10:42 | 37.15971 | 117.06286 | 37037 ft | 481 kts | 161° |
| 2026-05-04 10:42 | 37.09732 | 117.09305 | 37044 ft | 480 kts | 162° |
| 2026-05-04 10:43 | 37.03467 | 117.12216 | 37050 ft | 480 kts | 162° |
| 2026-05-04 10:44 | 36.81398 | 117.21447 | 37058 ft | 471 kts | 179° |
| 2026-05-04 10:45 | 36.78183 | 117.21579 | 37064 ft | 467 kts | 185° |
| 2026-05-04 10:45 | 36.71677 | 117.21514 | 37056 ft | 467 kts | 185° |
| 2026-05-04 10:46 | 36.65185 | 117.21467 | 37078 ft | 466 kts | 185° |
| 2026-05-04 10:46 | 36.58697 | 117.21424 | 37080 ft | 466 kts | 185° |
| 2026-05-04 10:47 | 36.52214 | 117.21385 | 37073 ft | 465 kts | 185° |
| 2026-05-04 10:47 | 36.45738 | 117.21340 | 37085 ft | 465 kts | 185° |
| 2026-05-04 10:49 | 36.20265 | 117.29308 | 37098 ft | 476 kts | 167° |
| 2026-05-04 10:50 | 36.13922 | 117.31648 | 37099 ft | 476 kts | 167° |
| 2026-05-04 10:52 | 35.88610 | 117.41050 | 37110 ft | 476 kts | 167° |
| 2026-05-04 10:52 | 35.82283 | 117.43431 | 37091 ft | 476 kts | 167° |
| 2026-05-04 10:54 | 35.56981 | 117.52850 | 37121 ft | 474 kts | 168° |
| 2026-05-04 10:56 | 35.31721 | 117.62189 | 37103 ft | 473 kts | 168° |
| 2026-05-04 10:57 | 35.25416 | 117.64514 | 37114 ft | 473 kts | 168° |
| 2026-05-04 10:57 | 35.19161 | 117.66808 | 37119 ft | 472 kts | 168° |
| 2026-05-04 10:58 | 35.12864 | 117.69117 | 37120 ft | 472 kts | 168° |
| 2026-05-04 10:58 | 35.06574 | 117.71426 | 37108 ft | 472 kts | 168° |
| 2026-05-04 10:59 | 35.00280 | 117.73734 | 37117 ft | 472 kts | 168° |
| 2026-05-04 10:59 | 34.93985 | 117.76032 | 37124 ft | 472 kts | 168° |
| 2026-05-04 11:00 | 34.87686 | 117.78329 | 37126 ft | 473 kts | 168° |
| 2026-05-04 11:02 | 34.62470 | 117.87448 | 37130 ft | 472 kts | 169° |
| 2026-05-04 11:05 | 34.16917 | 118.09384 | 37119 ft | 485 kts | 149° |
| 2026-05-04 11:06 | 34.11443 | 118.14137 | 37122 ft | 485 kts | 149° |
| 2026-05-04 11:06 | 34.05968 | 118.18899 | 37128 ft | 485 kts | 148° |
| 2026-05-04 11:10 | 33.67725 | 118.52331 | 37122 ft | 487 kts | 149° |
| 2026-05-04 11:12 | 33.45770 | 118.71391 | 37137 ft | 487 kts | 149° |
| 2026-05-04 11:12 | 33.40274 | 118.76153 | 37119 ft | 488 kts | 150° |
| 2026-05-04 11:13 | 33.34774 | 118.80913 | 37127 ft | 488 kts | 150° |
| 2026-05-04 11:13 | 33.29302 | 118.85651 | 37127 ft | 489 kts | 150° |
| 2026-05-04 11:14 | 33.28373 | 118.86457 | 37128 ft | 489 kts | 150° |
| 2026-05-04 11:16 | 33.01777 | 119.09524 | 36591 ft | 488 kts | 150° |
| 2026-05-04 11:16 | 32.99026 | 119.11895 | 36338 ft | 487 kts | 150° |
| 2026-05-04 11:16 | 32.96280 | 119.14257 | 36091 ft | 487 kts | 150° |
| 2026-05-04 11:17 | 32.93534 | 119.16620 | 35854 ft | 487 kts | 150° |
| 2026-05-04 11:17 | 32.90799 | 119.18988 | 35618 ft | 486 kts | 150° |
| 2026-05-04 11:19 | 32.71538 | 119.35803 | 30920 ft | 484 kts | 147° |
| 2026-05-04 11:19 | 32.68830 | 119.38156 | 30380 ft | 481 kts | 147° |
| 2026-05-04 11:19 | 32.66141 | 119.40482 | 29784 ft | 477 kts | 147° |
| 2026-05-04 11:19 | 32.63475 | 119.42786 | 29243 ft | 471 kts | 147° |
| 2026-05-04 11:20 | 32.60846 | 119.45059 | 28704 ft | 465 kts | 147° |
| 2026-05-04 11:20 | 32.58248 | 119.47305 | 28178 ft | 459 kts | 147° |
| 2026-05-04 11:20 | 32.55684 | 119.49522 | 27665 ft | 454 kts | 147° |
| 2026-05-04 11:20 | 32.53150 | 119.51719 | 27153 ft | 448 kts | 147° |
| 2026-05-04 11:22 | 32.36105 | 119.66348 | 23904 ft | 422 kts | 148° |
| 2026-05-04 11:22 | 32.33726 | 119.68371 | 23435 ft | 420 kts | 148° |
| 2026-05-04 11:23 | 32.31365 | 119.70382 | 22977 ft | 416 kts | 147° |
| 2026-05-04 11:23 | 32.29026 | 119.72376 | 22558 ft | 412 kts | 147° |
| 2026-05-04 11:24 | 32.15493 | 119.83971 | 19826 ft | 390 kts | 147° |
| 2026-05-04 11:25 | 32.15167 | 119.84252 | 19755 ft | 390 kts | 147° |
| 2026-05-04 11:27 | 32.02590 | 119.95044 | 16955 ft | 373 kts | 146° |
| 2026-05-04 11:36 | 32.01256 | 119.96199 | 16624 ft | 372 kts | 146° |
| 2026-05-04 11:36 | 31.99853 | 119.97409 | 16343 ft | 368 kts | 146° |
| 2026-05-04 11:36 | 31.97797 | 119.99174 | 15884 ft | 364 kts | 146° |
| 2026-05-04 11:37 | 31.95097 | 120.01481 | 15280 ft | 360 kts | 146° |
| 2026-05-04 11:37 | 31.93077 | 120.03198 | 14828 ft | 357 kts | 146° |
| 2026-05-04 11:37 | 31.91721 | 120.04350 | 14528 ft | 355 kts | 145° |
| 2026-05-04 11:37 | 31.89092 | 120.06591 | 13937 ft | 351 kts | 145° |
| 2026-05-04 11:38 | 31.87784 | 120.07706 | 13616 ft | 350 kts | 145° |
| 2026-05-04 11:38 | 31.85824 | 120.09375 | 13161 ft | 346 kts | 145° |
| 2026-05-04 11:38 | 31.83886 | 120.11027 | 12722 ft | 342 kts | 145° |
| 2026-05-04 11:38 | 31.81968 | 120.12662 | 12277 ft | 339 kts | 145° |
| 2026-05-04 11:39 | 31.80067 | 120.14286 | 11854 ft | 336 kts | 144° |
| 2026-05-04 11:39 | 31.78181 | 120.15895 | 11436 ft | 334 kts | 144° |
| 2026-05-04 11:40 | 31.67230 | 120.25075 | 9599 ft | 314 kts | 146° |
| 2026-05-04 11:41 | 31.65456 | 120.26539 | 9281 ft | 310 kts | 146° |
| 2026-05-04 11:41 | 31.63848 | 120.28211 | 8813 ft | 310 kts | 126° |
| 2026-05-04 11:41 | 31.62920 | 120.30442 | 8512 ft | 303 kts | 102° |
| 2026-05-04 11:41 | 31.62807 | 120.32870 | 8123 ft | 297 kts | 78° |
| 2026-05-04 11:42 | 31.63487 | 120.35121 | 7684 ft | 292 kts | 57° |
| 2026-05-04 11:42 | 31.64797 | 120.36870 | 6942 ft | 290 kts | 34° |
| 2026-05-04 11:42 | 31.66444 | 120.38258 | 6180 ft | 293 kts | 37° |
| 2026-05-04 11:42 | 31.67651 | 120.40165 | 5472 ft | 294 kts | 72° |
| 2026-05-04 11:43 | 31.67800 | 120.42492 | 4915 ft | 287 kts | 103° |
| 2026-05-04 11:43 | 31.67272 | 120.44717 | 4354 ft | 281 kts | 109° |
| 2026-05-04 11:43 | 31.66663 | 120.46854 | 3858 ft | 269 kts | 111° |
| 2026-05-04 11:43 | 31.65744 | 120.48657 | 3412 ft | 250 kts | 142° |
| 2026-05-04 11:44 | 31.64236 | 120.49397 | 3024 ft | 229 kts | 181° |
| 2026-05-04 11:44 | 31.62728 | 120.49097 | 2692 ft | 214 kts | 198° |
| 2026-05-04 11:44 | 31.61351 | 120.48403 | 2245 ft | 220 kts | 211° |
| 2026-05-04 11:44 | 31.60014 | 120.47545 | 1896 ft | 217 kts | 204° |
| 2026-05-04 11:45 | 31.58651 | 120.46898 | 1563 ft | 204 kts | 200° |
| 2026-05-04 11:45 | 31.57360 | 120.46338 | 1302 ft | 191 kts | 199° |
| 2026-05-04 11:45 | 31.56177 | 120.45829 | 1056 ft | 172 kts | 200° |
| 2026-05-04 11:45 | 31.55318 | 120.45459 | 889 ft | 160 kts | 199° |
| 2026-05-04 11:46 | 31.54331 | 120.45035 | 718 ft | 144 kts | 199° |
| 2026-05-04 11:46 | 31.53414 | 120.44640 | 530 ft | 139 kts | 199° |
| 2026-05-04 11:46 | 31.52512 | 120.44252 | 346 ft | 137 kts | 200° |
| 2026-05-04 11:46 | 31.51615 | 120.43867 | 177 ft | 138 kts | 199° |
| 2026-05-04 11:47 | 31.50734 | 120.43486 | 30 ft | 130 kts | 200° |
| 2026-05-04 11:47 | 31.50016 | 120.43183 | 29 ft | 86 kts | 200° |
| 2026-05-04 11:47 | 31.49619 | 120.43009 | 24 ft | 36 kts | 200° |
| 2026-05-04 11:47 | 31.49427 | 120.42926 | 30 ft | 23 kts | 200° |
| 2026-05-04 11:48 | 31.49290 | 120.42861 | 29 ft | 17 kts | 208° |
| 2026-05-04 11:48 | 31.49210 | 120.42797 | 30 ft | 14 kts | 218° |
| 2026-05-04 11:48 | 31.49148 | 120.42726 | 27 ft | 13 kts | 228° |
| 2026-05-04 11:48 | 31.49100 | 120.42640 | 25 ft | 11 kts | 266° |
| 2026-05-04 11:49 | 31.49124 | 120.42566 | 25 ft | 10 kts | 313° |
| 2026-05-04 11:49 | 31.49191 | 120.42574 | 25 ft | 10 kts | 20° |
| 2026-05-04 11:49 | 31.49266 | 120.42606 | 25 ft | 13 kts | 20° |
| 2026-05-04 11:49 | 31.49355 | 120.42645 | 25 ft | 15 kts | 20° |
| 2026-05-04 11:50 | 31.49458 | 120.42689 | 25 ft | 17 kts | 20° |
| 2026-05-04 11:50 | 31.49562 | 120.42734 | 25 ft | 15 kts | 20° |
| 2026-05-04 11:50 | 31.49667 | 120.42779 | 25 ft | 17 kts | 20° |
| 2026-05-04 11:50 | 31.49781 | 120.42828 | 25 ft | 18 kts | 20° |
| 2026-05-04 11:51 | 31.49898 | 120.42878 | 25 ft | 18 kts | 20° |
| 2026-05-04 11:51 | 31.49995 | 120.42920 | 26 ft | 15 kts | 20° |
| 2026-05-04 11:51 | 31.50099 | 120.42965 | 26 ft | 17 kts | 18° |
| 2026-05-04 11:51 | 31.50191 | 120.43004 | 27 ft | 15 kts | 20° |
| 2026-05-04 11:52 | 31.50290 | 120.43047 | 31 ft | 15 kts | 20° |
| 2026-05-04 11:52 | 31.50391 | 120.43090 | 28 ft | 16 kts | 20° |
| 2026-05-04 11:52 | 31.50493 | 120.43134 | 26 ft | 15 kts | 20° |
| 2026-05-04 11:52 | 31.50590 | 120.43176 | 32 ft | 14 kts | 20° |
| 2026-05-04 11:53 | 31.50651 | 120.43202 | 30 ft | 11 kts | 19° |
| 2026-05-04 11:53 | 31.50724 | 120.43228 | 28 ft | 10 kts | 358° |
| 2026-05-04 11:53 | 31.50755 | 120.43192 | 30 ft | 4 kts | 291° |
| 2026-05-04 11:53 | 31.50759 | 120.43153 | 26 ft | 5 kts | 277° |
| 2026-05-04 11:55 | 31.50778 | 120.43087 | 27 ft | 0 kts | 290° |
| 2026-05-04 12:01 | 31.50781 | 120.43079 | 27 ft | 0 kts | 290° |
| 2026-05-04 12:01 | 31.50778 | 120.43087 | 23 ft | 0 kts | 290° |